createdAt,value
2023-02-15T00:03:24.447Z,4.22
2023-02-15T00:08:28.198Z,18.33
2023-02-15T00:13:32.822Z,5.93
2023-02-15T00:18:36.938Z,8.40
2023-02-15T00:23:40.872Z,5.30
2023-02-15T00:28:44.792Z,7.03
2023-02-15T00:33:48.828Z,3.78
2023-02-15T00:38:52.737Z,0.52
2023-02-15T00:43:56.831Z,11.15
2023-02-15T00:49:00.877Z,4.57
2023-02-15T00:54:04.862Z,13.20
2023-02-15T00:59:10.477Z,1.13
2023-02-15T01:04:14.382Z,8.97
2023-02-15T01:09:18.163Z,6.07
2023-02-15T01:14:22.154Z,9.82
2023-02-15T01:19:26.998Z,4.13
2023-02-15T01:24:30.950Z,0.43
2023-02-15T01:29:34.993Z,10.38
2023-02-15T01:39:42.313Z,15.20
2023-02-15T01:45:01.586Z,2.25
2023-02-15T01:50:20.550Z,4.20
2023-02-15T01:55:28.291Z,7.53
2023-02-15T02:00:32.401Z,5.60
2023-02-15T02:10:41.003Z,5.93
2023-02-15T02:16:09.273Z,3.92
2023-02-15T02:21:52.146Z,1.13
2023-02-15T02:27:20.309Z,12.60
2023-02-15T02:33:02.847Z,9.50
2023-02-15T02:38:06.618Z,4.40
2023-02-15T02:43:32.960Z,9.88
2023-02-15T02:48:36.937Z,6.00
2023-02-15T02:53:40.723Z,14.50
2023-02-15T02:58:53.640Z,1.65
2023-02-15T03:04:13.930Z,3.15
2023-02-15T03:09:47.449Z,3.67
2023-02-15T03:15:17.693Z,11.75
2023-02-15T03:20:36.063Z,2.50
2023-02-15T03:25:44.243Z,5.80
2023-02-15T03:30:55.660Z,18.77
2023-02-15T03:36:02.489Z,7.37
2023-02-15T03:41:11.617Z,10.47
2023-02-15T03:46:45.987Z,17.57
2023-02-15T03:51:54.287Z,15.82
2023-02-15T03:57:19.850Z,18.50
2023-02-15T04:02:32.128Z,18.37
2023-02-15T04:07:36.006Z,21.83
2023-02-15T04:12:39.727Z,14.43
2023-02-15T04:17:43.637Z,25.70
2023-02-15T04:23:06.116Z,26.07
2023-02-15T04:28:10.051Z,21.23
2023-02-15T04:33:14.259Z,17.63
2023-02-15T04:38:18.049Z,30.83
2023-02-15T04:43:22.104Z,27.97
2023-02-15T04:48:26.125Z,30.80
2023-02-15T04:53:29.914Z,31.33
2023-02-15T04:58:33.965Z,35.83
2023-02-15T05:03:37.905Z,28.33
2023-02-15T05:08:41.878Z,34.73
2023-02-15T05:13:45.993Z,33.63
2023-02-15T05:18:49.767Z,44.10
2023-02-15T05:23:53.900Z,36.40
2023-02-15T05:28:57.771Z,38.57
2023-02-15T05:34:02.647Z,39.10
2023-02-15T05:39:07.766Z,42.77
2023-02-15T05:44:11.586Z,37.43
2023-02-15T05:49:15.545Z,44.97
2023-02-15T05:54:19.289Z,50.33
2023-02-15T05:59:23.151Z,51.57
2023-02-15T06:04:27.190Z,48.00
2023-02-15T06:09:31.069Z,45.47
2023-02-15T06:14:35.150Z,47.53
2023-02-15T06:19:39.164Z,46.20
2023-02-15T06:24:44.419Z,55.33
2023-02-15T06:29:48.169Z,56.43
2023-02-15T06:34:52.302Z,67.27
2023-02-15T06:39:56.342Z,62.50
2023-02-15T06:45:01.877Z,64.07
2023-02-15T06:50:09.560Z,94.17
2023-02-15T06:55:13.427Z,95.70
2023-02-15T07:00:17.689Z,96.57
2023-02-15T07:05:21.870Z,89.63
2023-02-15T07:10:27.152Z,84.57
2023-02-15T07:15:31.248Z,89.77
2023-02-15T07:20:37.735Z,84.33
2023-02-15T07:25:41.620Z,82.22
2023-02-15T07:30:45.768Z,84.43
2023-02-15T07:35:56.030Z,92.93
2023-02-15T07:41:01.253Z,83.93
2023-02-15T07:46:10.921Z,67.80
2023-02-15T07:51:16.252Z,77.27
2023-02-15T07:56:20.134Z,65.57
2023-02-15T08:01:32.003Z,73.00
2023-02-15T08:06:37.980Z,59.83
2023-02-15T08:11:42.345Z,74.30
2023-02-15T08:16:50.073Z,68.03
2023-02-15T08:22:02.664Z,68.37
2023-02-15T08:27:11.469Z,64.20
2023-02-15T08:32:15.757Z,54.67
2023-02-15T08:37:20.352Z,53.93
2023-02-15T08:42:24.455Z,48.30
2023-02-15T08:47:28.312Z,50.67
2023-02-15T08:52:32.381Z,55.33
2023-02-15T08:57:37.733Z,55.60
2023-02-15T09:02:41.676Z,62.23
2023-02-15T09:07:46.461Z,51.33
2023-02-15T09:12:51.728Z,61.23
2023-02-15T09:17:55.706Z,55.90
2023-02-15T09:23:00.005Z,57.80
2023-02-15T09:28:05.383Z,62.53
2023-02-15T09:33:09.195Z,67.63
2023-02-15T09:38:13.853Z,67.87
2023-02-15T09:43:37.081Z,72.77
2023-02-15T09:48:43.147Z,79.53
2023-02-15T09:54:10.471Z,66.23
2023-02-15T10:04:41.916Z,67.43
2023-02-15T10:10:12.277Z,71.43
2023-02-15T10:15:54.873Z,84.67
2023-02-15T10:21:25.885Z,70.40
2023-02-15T10:26:45.976Z,84.30
2023-02-15T10:31:52.491Z,71.37
2023-02-15T10:37:08.048Z,77.77
2023-02-15T10:42:32.651Z,67.90
2023-02-15T10:47:55.655Z,61.53
2023-02-15T10:53:27.227Z,73.67
2023-02-15T10:58:47.368Z,76.53
2023-02-15T11:04:09.908Z,61.47
2023-02-15T11:09:22.102Z,61.33
2023-02-15T11:14:40.994Z,69.93
2023-02-15T11:20:02.364Z,63.33
2023-02-15T11:25:22.452Z,73.67
2023-02-15T11:30:47.480Z,64.73
2023-02-15T11:36:05.104Z,63.10
2023-02-15T11:41:25.836Z,67.53
2023-02-15T11:46:30.383Z,54.50
2023-02-15T11:51:34.393Z,58.53
2023-02-15T11:56:38.468Z,57.47
2023-02-15T12:01:47.025Z,55.33
2023-02-15T12:07:02.966Z,55.07
2023-02-15T12:12:23.280Z,63.07
2023-02-15T12:17:39.831Z,52.67
2023-02-15T12:23:04.527Z,46.20
2023-02-15T12:28:42.616Z,44.20
2023-02-15T12:33:49.798Z,39.60
2023-02-15T12:44:33.293Z,49.17
2023-02-15T12:49:40.307Z,42.17
2023-02-15T12:54:45.201Z,50.73
2023-02-15T12:59:58.367Z,79.80
2023-02-15T13:05:29.418Z,141.07
2023-02-15T13:10:38.625Z,145.33
2023-02-15T13:15:47.117Z,104.03
2023-02-15T13:20:52.388Z,103.23
2023-02-15T13:26:00.139Z,61.87
2023-02-15T13:31:04.357Z,50.63
2023-02-15T13:36:12.233Z,45.07
2023-02-15T13:41:22.361Z,45.57
2023-02-15T13:46:32.535Z,47.23
2023-02-15T13:51:58.237Z,54.17
2023-02-15T13:57:23.115Z,55.73
2023-02-15T14:02:27.691Z,47.20
2023-02-15T14:08:02.350Z,45.20
2023-02-15T14:13:50.717Z,36.73
2023-02-15T14:19:07.284Z,48.83
2023-02-15T14:24:27.195Z,40.47
2023-02-15T14:29:37.365Z,33.37
2023-02-15T14:34:47.793Z,28.20
2023-02-15T14:40:19.093Z,28.87
2023-02-15T14:45:58.269Z,44.23
2023-02-15T14:51:03.101Z,36.67
2023-02-15T14:56:20.335Z,40.53
2023-02-15T15:01:32.169Z,30.30
2023-02-15T15:06:39.569Z,35.20
2023-02-15T15:11:52.542Z,29.70
2023-02-15T15:16:56.733Z,24.50
2023-02-15T15:22:06.731Z,30.37
2023-02-15T15:27:38.226Z,36.37
2023-02-15T15:32:49.490Z,31.73
2023-02-15T15:38:27.165Z,31.57
2023-02-15T15:43:39.738Z,40.87
2023-02-15T15:48:43.832Z,30.87
2023-02-15T15:53:54.688Z,31.70
2023-02-15T15:59:04.826Z,26.70
2023-02-15T16:04:15.286Z,25.63
2023-02-15T16:09:22.160Z,37.70
2023-02-15T16:14:41.413Z,28.33
2023-02-15T16:19:47.115Z,39.90
2023-02-15T16:29:54.868Z,21.73
2023-02-15T16:35:04.822Z,23.30
2023-02-15T16:40:40.597Z,19.60
2023-02-15T16:45:45.319Z,34.40
2023-02-15T16:50:56.988Z,34.30
2023-02-15T16:56:04.174Z,28.83
2023-02-15T17:01:11.670Z,22.90
2023-02-15T17:06:28.166Z,35.70
2023-02-15T17:11:38.188Z,33.43
2023-02-15T17:16:53.061Z,24.27
2023-02-15T17:22:06.631Z,27.83
2023-02-15T17:27:26.674Z,35.27
2023-02-15T17:32:33.140Z,40.47
2023-02-15T17:37:40.091Z,36.97
2023-02-15T17:42:43.889Z,36.20
2023-02-15T17:47:50.002Z,30.80
2023-02-15T17:52:57.412Z,20.60
2023-02-15T17:58:01.469Z,29.90
2023-02-15T18:03:23.599Z,27.63
2023-02-15T18:08:48.200Z,24.73
2023-02-15T18:13:52.124Z,28.10
2023-02-15T18:18:57.995Z,30.83
2023-02-15T18:24:01.778Z,27.13
2023-02-15T18:29:05.685Z,22.20
2023-02-15T18:34:32.065Z,33.43
2023-02-15T18:39:56.244Z,48.03
2023-02-15T18:45:04.897Z,32.20
2023-02-15T18:50:09.781Z,31.33
2023-02-15T18:55:25.928Z,18.85
2023-02-15T19:00:35.475Z,45.47
2023-02-15T19:05:39.478Z,64.07
2023-02-15T19:10:44.600Z,15.17
2023-02-15T19:20:52.246Z,34.83
2023-02-15T19:25:56.175Z,27.20
2023-02-15T19:31:00.008Z,39.83
2023-02-15T19:36:05.228Z,27.80
2023-02-15T19:41:17.477Z,32.23
2023-02-15T19:46:22.414Z,34.20
2023-02-15T19:51:27.632Z,10.57
2023-02-15T19:56:31.518Z,28.83
2023-02-15T20:01:35.561Z,18.57
2023-02-15T20:06:39.635Z,47.23
2023-02-15T20:11:43.478Z,45.57
2023-02-15T20:16:47.466Z,36.60
2023-02-15T20:21:55.159Z,14.02
2023-02-15T20:27:00.878Z,28.93
2023-02-15T20:32:04.841Z,14.70
2023-02-15T20:37:24.276Z,22.10
2023-02-15T20:42:28.235Z,26.90
2023-02-15T20:47:32.059Z,22.87
2023-02-15T20:52:36.805Z,27.83
2023-02-15T20:57:40.582Z,24.33
2023-02-15T21:02:44.876Z,17.87
2023-02-15T21:07:49.503Z,21.75
2023-02-15T21:12:54.023Z,15.68
2023-02-15T21:18:01.813Z,17.77
2023-02-15T21:23:07.617Z,24.90
2023-02-15T21:28:19.622Z,24.60
2023-02-15T21:33:23.450Z,17.07
2023-02-15T21:38:31.741Z,17.17
2023-02-15T21:43:53.929Z,29.40
2023-02-15T21:48:57.897Z,18.50
2023-02-15T21:54:01.695Z,26.05
2023-02-15T21:59:14.345Z,13.07
2023-02-15T22:04:28.554Z,18.57
2023-02-15T22:09:32.345Z,24.70
2023-02-15T22:14:40.081Z,23.00
2023-02-15T22:19:45.716Z,16.07
2023-02-15T22:24:52.582Z,9.23
2023-02-15T22:29:56.818Z,4.27
2023-02-15T22:35:00.669Z,35.03
2023-02-15T22:40:04.962Z,19.67
2023-02-15T22:45:20.232Z,13.00
2023-02-15T22:50:27.105Z,22.97
2023-02-15T22:55:37.394Z,21.20
2023-02-15T23:00:41.451Z,17.90
2023-02-15T23:05:46.741Z,21.63
2023-02-15T23:10:57.706Z,32.93
2023-02-15T23:16:04.073Z,20.73
2023-02-15T23:21:14.180Z,13.37
2023-02-15T23:26:25.782Z,28.33
2023-02-15T23:31:32.831Z,14.23
2023-02-15T23:36:39.425Z,20.13
2023-02-15T23:41:43.182Z,10.07
2023-02-15T23:46:49.746Z,29.03
2023-02-15T23:51:56.736Z,7.87
2023-02-15T23:57:03.095Z,12.73
